Time;durP1;ratioP1;P1;durP2;ratioP2;P2;SDS_P1;SDS_P2;PMS_P1;PMS_P2;Temp;Humidity;BMP_temperature;BMP_pressure;BME280_temperature;BME280_humidity;BME280_pressure;Samples;Min_cycle;Max_cycle;Signal;HPM_P1;HPM_P2
2021/10/15 00:02:15;;;;;;;7.88;3.20;;;11.50;99.90;;;;;;5076375;28;20032;-56
2021/10/15 00:04:41;;;;;;;7.38;2.63;;;11.40;99.90;;;;;;5070642;28;20521;-57
2021/10/15 00:07:06;;;;;;;7.45;2.90;;;11.20;99.90;;;;;;5076634;28;20024;-59
2021/10/15 00:09:32;;;;;;;15.43;3.17;;;11.10;99.90;;;;;;5074661;28;20028;-60
2021/10/15 00:11:58;;;;;;;10.95;2.88;;;10.90;99.90;;;;;;5083795;28;20029;-59
2021/10/15 00:14:23;;;;;;;11.55;3.42;;;10.80;99.90;;;;;;5074843;28;20032;-59
2021/10/15 00:16:49;;;;;;;11.35;3.30;;;10.80;99.90;;;;;;5086640;28;20036;-59
2021/10/15 00:19:14;;;;;;;6.60;3.22;;;10.80;99.90;;;;;;5085025;28;20028;-58
2021/10/15 00:21:40;;;;;;;11.13;3.20;;;10.80;99.90;;;;;;5083881;28;20028;-58
2021/10/15 00:24:06;;;;;;;7.55;3.70;;;10.70;99.90;;;;;;5075271;28;20482;-58
2021/10/15 00:26:31;;;;;;;5.95;2.83;;;10.70;99.90;;;;;;5082377;28;20035;-58
2021/10/15 00:28:57;;;;;;;10.38;3.03;;;10.70;99.90;;;;;;5082327;28;20036;-58
2021/10/15 00:31:22;;;;;;;11.75;4.35;;;10.70;99.90;;;;;;5082629;28;20039;-56
2021/10/15 00:33:48;;;;;;;10.98;3.60;;;10.80;99.90;;;;;;5082316;28;20036;-58
2021/10/15 00:36:13;;;;;;;14.52;3.80;;;10.80;99.90;;;;;;5082714;28;20108;-59
2021/10/15 00:38:39;;;;;;;9.93;3.78;;;10.80;99.90;;;;;;5077960;28;20052;-58
2021/10/15 00:41:04;;;;;;;13.25;4.90;;;10.70;99.90;;;;;;5085685;28;20032;-56
2021/10/15 00:43:30;;;;;;;5.68;3.10;;;10.70;99.90;;;;;;5083032;28;20036;-57
2021/10/15 00:45:56;;;;;;;9.23;3.85;;;10.60;99.90;;;;;;5085571;28;20067;-56
2021/10/15 00:48:22;;;;;;;10.05;4.03;;;10.50;99.90;;;;;;5083183;28;20481;-58
2021/10/15 00:50:48;;;;;;;9.68;3.92;;;10.30;99.90;;;;;;5079829;28;20439;-59
2021/10/15 00:53:14;;;;;;;18.63;3.70;;;10.30;99.90;;;;;;5082445;28;20512;-58
2021/10/15 00:55:42;;;;;;;12.40;4.07;;;10.20;99.90;;;;;;5086624;28;20044;-55
2021/10/15 00:58:07;;;;;;;10.63;4.28;;;10.00;99.90;;;;;;5087748;28;20020;-57
2021/10/15 01:00:33;;;;;;;19.42;4.18;;;10.00;99.90;;;;;;5088945;28;20100;-58
2021/10/15 01:02:59;;;;;;;13.60;4.43;;;9.80;99.90;;;;;;5061277;28;20543;-57
2021/10/15 01:05:24;;;;;;;12.20;6.10;;;9.80;99.90;;;;;;5078501;28;20435;-59
2021/10/15 01:07:50;;;;;;;9.70;4.68;;;9.70;99.90;;;;;;5082250;28;20036;-57
2021/10/15 01:10:16;;;;;;;9.50;4.38;;;9.60;99.90;;;;;;5081829;28;20024;-58
2021/10/15 01:12:43;;;;;;;9.90;4.00;;;9.60;99.90;;;;;;5086755;28;20040;-59
2021/10/15 01:15:09;;;;;;;12.40;4.78;;;9.40;99.90;;;;;;5082658;28;20040;-58
2021/10/15 01:17:35;;;;;;;8.32;5.10;;;9.40;99.90;;;;;;5090651;28;20024;-58
2021/10/15 01:20:01;;;;;;;9.00;4.35;;;9.30;99.90;;;;;;5082293;28;20017;-55
2021/10/15 01:22:28;;;;;;;10.50;5.20;;;9.30;99.90;;;;;;5084614;28;20013;-57
2021/10/15 01:24:55;;;;;;;9.07;5.10;;;9.20;99.90;;;;;;5087022;28;20032;-59
2021/10/15 01:27:21;;;;;;;12.50;5.05;;;9.20;99.90;;;;;;5083441;28;20023;-57
2021/10/15 01:29:47;;;;;;;8.75;4.40;;;9.20;99.90;;;;;;5078685;28;20098;-56
2021/10/15 01:32:14;;;;;;;12.18;4.32;;;9.10;99.90;;;;;;5089600;28;20396;-59
2021/10/15 01:34:40;;;;;;;7.82;4.78;;;9.10;99.90;;;;;;5075391;28;20093;-56
2021/10/15 01:37:06;;;;;;;12.05;5.22;;;9.10;99.90;;;;;;5077352;28;20044;-57
2021/10/15 01:39:31;;;;;;;6.68;4.28;;;9.00;99.90;;;;;;5086275;28;20025;-58
2021/10/15 01:41:57;;;;;;;8.57;4.38;;;9.00;99.90;;;;;;5083745;28;20450;-58
2021/10/15 01:44:23;;;;;;;9.48;4.80;;;8.90;99.90;;;;;;5074584;28;20024;-58
2021/10/15 01:46:48;;;;;;;12.25;4.88;;;8.80;99.90;;;;;;5089322;28;20553;-59
2021/10/15 01:49:14;;;;;;;9.98;5.07;;;8.80;99.90;;;;;;5081567;28;20036;-57
2021/10/15 01:51:39;;;;;;;9.07;4.90;;;8.80;99.90;;;;;;5077380;28;20032;-58
2021/10/15 01:54:06;;;;;;;11.93;6.45;;;8.70;99.90;;;;;;5084191;28;20032;-58
2021/10/15 01:56:33;;;;;;;19.77;5.93;;;8.60;99.90;;;;;;5085316;28;20025;-58
2021/10/15 01:58:58;;;;;;;12.75;5.55;;;8.60;99.90;;;;;;5080161;28;20144;-56
2021/10/15 02:01:25;;;;;;;20.40;6.55;;;8.50;99.90;;;;;;5086757;28;20028;-58
2021/10/15 02:03:50;;;;;;;12.02;5.78;;;8.50;99.90;;;;;;5084802;28;20081;-58
2021/10/15 02:06:16;;;;;;;16.83;5.90;;;8.50;99.90;;;;;;5081037;28;20377;-56
2021/10/15 02:08:42;;;;;;;7.78;5.15;;;8.50;99.90;;;;;;5089198;28;20032;-57
2021/10/15 02:11:07;;;;;;;16.77;6.03;;;8.40;99.90;;;;;;5077779;28;20028;-59
2021/10/15 02:13:33;;;;;;;17.20;5.65;;;8.40;99.90;;;;;;5082224;28;20055;-59
2021/10/15 02:15:59;;;;;;;13.88;5.90;;;8.30;99.90;;;;;;5085434;28;20113;-57
2021/10/15 02:18:25;;;;;;;14.30;6.10;;;8.20;99.90;;;;;;5077324;28;20023;-59
2021/10/15 02:20:51;;;;;;;12.18;5.75;;;8.20;99.90;;;;;;5086106;28;20032;-57
2021/10/15 02:23:16;;;;;;;14.75;6.20;;;8.20;99.90;;;;;;5078730;28;20035;-58
2021/10/15 02:25:42;;;;;;;11.55;6.30;;;8.20;99.90;;;;;;5083105;28;20506;-58
2021/10/15 02:28:07;;;;;;;16.13;6.22;;;8.20;99.90;;;;;;5080447;28;20028;-58
2021/10/15 02:30:33;;;;;;;16.35;6.50;;;8.20;99.90;;;;;;5082124;28;20037;-57
2021/10/15 02:32:59;;;;;;;17.45;6.57;;;8.10;99.90;;;;;;5076479;28;20023;-56
2021/10/15 02:35:24;;;;;;;10.73;5.82;;;8.10;99.90;;;;;;5079492;28;20474;-58
2021/10/15 02:37:50;;;;;;;13.48;6.47;;;8.10;99.90;;;;;;5078213;28;20023;-58
2021/10/15 02:40:16;;;;;;;15.68;6.45;;;8.00;99.90;;;;;;5083653;28;20025;-56
2021/10/15 02:42:42;;;;;;;13.25;7.30;;;8.10;99.90;;;;;;5074876;28;20389;-56
2021/10/15 02:45:08;;;;;;;13.43;6.95;;;8.00;99.90;;;;;;5078650;28;20029;-59
2021/10/15 02:47:34;;;;;;;15.40;6.45;;;8.00;99.90;;;;;;5080559;28;20370;-56
2021/10/15 02:49:59;;;;;;;11.23;5.93;;;8.00;99.90;;;;;;5083495;28;20031;-57
2021/10/15 02:52:25;;;;;;;15.98;7.30;;;8.00;99.90;;;;;;5076319;28;20043;-59
2021/10/15 02:54:50;;;;;;;15.23;6.38;;;8.00;99.90;;;;;;5085054;28;20035;-58
2021/10/15 02:57:16;;;;;;;17.90;6.28;;;8.00;99.90;;;;;;5082866;28;20028;-59
2021/10/15 02:59:41;;;;;;;27.48;8.40;;;8.00;99.90;;;;;;5079037;28;20031;-58
2021/10/15 03:02:07;;;;;;;12.25;5.93;;;8.00;99.90;;;;;;5085599;28;20024;-59
2021/10/15 03:04:33;;;;;;;13.07;6.40;;;8.00;99.90;;;;;;5086160;28;20032;-58
2021/10/15 03:06:58;;;;;;;13.55;6.18;;;8.00;99.90;;;;;;5084649;28;20157;-58
2021/10/15 03:09:24;;;;;;;16.77;7.32;;;8.00;99.90;;;;;;5080098;28;20048;-58
2021/10/15 03:11:50;;;;;;;14.88;6.70;;;8.10;99.90;;;;;;5079433;28;20028;-58
2021/10/15 03:14:15;;;;;;;13.65;5.75;;;8.10;99.90;;;;;;5077430;28;20024;-60
2021/10/15 03:16:41;;;;;;;17.27;7.00;;;8.10;99.90;;;;;;5075000;28;20219;-59
2021/10/15 03:19:06;;;;;;;15.82;6.78;;;8.20;99.90;;;;;;5074650;28;20081;-59
2021/10/15 03:21:32;;;;;;;14.23;6.65;;;8.20;99.90;;;;;;5084140;28;20027;-58
2021/10/15 03:23:57;;;;;;;13.93;6.15;;;8.20;99.90;;;;;;5089429;28;20388;-57
2021/10/15 03:26:23;;;;;;;13.13;6.05;;;8.40;99.90;;;;;;5078927;28;20028;-59
2021/10/15 03:28:48;;;;;;;19.58;7.15;;;8.40;99.90;;;;;;5087134;28;20040;-60
2021/10/15 03:31:14;;;;;;;12.77;6.05;;;8.50;99.90;;;;;;5084712;28;20111;-60
2021/10/15 03:33:40;;;;;;;12.20;5.80;;;8.60;99.90;;;;;;5079231;28;20032;-60
2021/10/15 03:36:05;;;;;;;16.05;6.57;;;8.60;99.90;;;;;;5081368;28;20029;-59
2021/10/15 03:38:31;;;;;;;15.18;6.47;;;8.70;99.90;;;;;;5083782;28;20024;-59
2021/10/15 03:40:56;;;;;;;14.45;6.18;;;8.80;99.90;;;;;;5087061;22;20084;-59
2021/10/15 03:43:22;;;;;;;11.35;6.38;;;8.80;99.90;;;;;;5049829;28;20058;-59
2021/10/15 03:45:47;;;;;;;14.82;6.45;;;8.80;99.90;;;;;;5053705;28;20497;-59
2021/10/15 03:48:13;;;;;;;16.83;6.20;;;8.90;99.90;;;;;;5063831;28;20468;-57
2021/10/15 03:50:38;;;;;;;8.02;5.10;;;9.00;99.90;;;;;;5052775;28;20798;-58
2021/10/15 03:53:04;;;;;;;15.80;6.50;;;9.00;99.90;;;;;;5050123;28;20077;-58
2021/10/15 03:55:30;;;;;;;11.10;5.93;;;9.10;99.90;;;;;;5051693;28;20029;-58
2021/10/15 03:57:55;;;;;;;9.43;5.00;;;9.20;99.90;;;;;;5049382;28;20021;-59
2021/10/15 04:00:21;;;;;;;16.40;6.10;;;9.30;99.90;;;;;;5054292;28;20100;-59
2021/10/15 04:02:47;;;;;;;12.10;5.65;;;9.30;99.90;;;;;;5051551;28;20037;-59
2021/10/15 04:05:13;;;;;;;10.23;5.72;;;9.30;99.90;;;;;;5047478;28;20021;-59
2021/10/15 04:07:39;;;;;;;11.25;5.20;;;9.40;99.90;;;;;;5049907;28;20021;-59
2021/10/15 04:10:06;;;;;;;14.88;4.97;;;9.40;99.90;;;;;;5054282;28;20044;-57
2021/10/15 04:12:32;;;;;;;9.75;4.85;;;9.40;99.90;;;;;;5053061;28;20017;-59
2021/10/15 04:14:57;;;;;;;14.68;5.68;;;9.50;99.90;;;;;;5053070;28;20043;-59
2021/10/15 04:17:23;;;;;;;10.88;5.32;;;9.50;99.90;;;;;;5064341;28;20017;-59
2021/10/15 04:19:48;;;;;;;13.82;5.72;;;9.50;99.90;;;;;;5057127;28;20504;-59
2021/10/15 04:22:14;;;;;;;12.63;5.97;;;9.60;99.90;;;;;;5051738;28;20029;-59
2021/10/15 04:24:40;;;;;;;15.63;5.93;;;9.60;99.90;;;;;;5064421;28;20021;-59
2021/10/15 04:27:06;;;;;;;12.55;5.75;;;9.60;99.90;;;;;;5059815;28;20036;-59
2021/10/15 04:29:32;;;;;;;12.15;5.35;;;9.70;99.90;;;;;;5054090;28;20020;-59
2021/10/15 04:31:58;;;;;;;11.63;5.40;;;9.70;99.90;;;;;;5058569;28;20039;-59
2021/10/15 04:34:24;;;;;;;22.17;6.78;;;9.80;99.90;;;;;;5052583;28;20017;-59
2021/10/15 04:36:49;;;;;;;9.50;5.45;;;9.80;99.90;;;;;;5058266;28;20021;-59
2021/10/15 04:39:15;;;;;;;15.82;5.57;;;9.90;99.90;;;;;;5051486;28;20033;-59
2021/10/15 04:41:41;;;;;;;20.42;5.93;;;9.90;99.90;;;;;;5057937;28;20032;-59
2021/10/15 04:44:07;;;;;;;12.05;5.35;;;10.00;99.90;;;;;;5069309;28;20035;-59
2021/10/15 04:46:33;;;;;;;10.32;5.70;;;10.00;99.90;;;;;;5058246;28;20041;-59
2021/10/15 04:48:58;;;;;;;14.93;5.50;;;10.10;99.90;;;;;;5055860;28;20105;-59
2021/10/15 04:51:24;;;;;;;12.18;5.18;;;10.10;99.90;;;;;;5052640;28;20044;-59
2021/10/15 04:53:49;;;;;;;14.07;5.43;;;10.10;99.90;;;;;;5052200;28;20033;-58
2021/10/15 04:56:15;;;;;;;9.75;5.50;;;10.10;99.90;;;;;;5050206;28;20065;-59
2021/10/15 04:58:41;;;;;;;15.93;5.38;;;10.20;99.90;;;;;;5052672;28;20025;-59
2021/10/15 05:01:06;;;;;;;14.05;6.07;;;10.20;99.90;;;;;;5054772;28;20020;-59
2021/10/15 05:03:32;;;;;;;11.18;4.90;;;10.20;99.90;;;;;;5062169;28;20021;-59
2021/10/15 05:05:57;;;;;;;13.90;5.55;;;10.20;99.90;;;;;;5050480;28;20037;-57
2021/10/15 05:08:28;;;;;;;16.70;5.47;;;10.30;99.90;;;;;;5063225;28;20094;-59
2021/10/15 05:10:54;;;;;;;11.00;4.72;;;10.30;99.90;;;;;;5064691;28;20039;-59
2021/10/15 05:13:21;;;;;;;24.52;10.32;;;10.40;99.90;;;;;;5056533;28;20029;-59
2021/10/15 05:15:47;;;;;;;15.57;5.85;;;10.40;99.90;;;;;;5052835;28;20064;-59
2021/10/15 05:18:17;;;;;;;10.60;4.57;;;10.50;99.90;;;;;;5057308;28;20033;-56
2021/10/15 05:20:44;;;;;;;16.75;5.10;;;10.50;99.90;;;;;;5061424;28;20021;-58
2021/10/15 05:23:10;;;;;;;13.25;4.85;;;10.40;99.90;;;;;;5054288;28;20025;-59
2021/10/15 05:25:37;;;;;;;12.35;4.68;;;10.50;99.90;;;;;;5056147;28;20056;-58
2021/10/15 05:28:03;;;;;;;12.15;5.28;;;10.40;99.90;;;;;;5051768;28;20035;-59
2021/10/15 05:30:29;;;;;;;13.73;5.30;;;10.50;99.90;;;;;;5060254;28;20086;-59
2021/10/15 05:32:55;;;;;;;18.33;5.63;;;10.50;99.90;;;;;;5052010;28;20033;-58
2021/10/15 05:35:20;;;;;;;10.30;4.90;;;10.60;99.90;;;;;;5051002;28;20087;-58
2021/10/15 05:37:46;;;;;;;13.55;6.07;;;10.60;99.90;;;;;;5051748;28;20029;-57
2021/10/15 05:40:12;;;;;;;14.20;5.38;;;10.60;99.90;;;;;;5041640;28;20397;-59
2021/10/15 05:42:44;;;;;;;13.90;6.22;;;10.70;99.90;;;;;;5067911;28;20047;-57
2021/10/15 05:45:09;;;;;;;17.20;5.72;;;10.60;99.90;;;;;;5050222;28;20024;-57
2021/10/15 05:47:35;;;;;;;12.07;5.03;;;10.60;99.90;;;;;;5043936;28;20104;-58
2021/10/15 05:50:00;;;;;;;14.43;6.00;;;10.70;99.90;;;;;;5045764;28;20049;-57
2021/10/15 05:52:34;;;;;;;8.75;4.45;;;10.70;99.90;;;;;;5048883;28;20100;-59
2021/10/15 05:55:23;;;;;;;7.23;4.53;;;10.70;99.90;;;;;;5046114;28;20493;-56
2021/10/15 06:00:28;;;;;;;11.52;4.93;;;10.70;99.90;;;;;;5044502;28;20029;-59
2021/10/15 06:02:54;;;;;;;13.25;4.57;;;10.70;99.90;;;;;;5047165;28;20021;-58
2021/10/15 06:14:12;;;;;;;10.15;4.70;;;10.60;99.90;;;;;;5046476;28;19932;-58
2021/10/15 06:16:23;;;;;;;20.27;6.30;;;10.70;99.90;;;;;;5044813;28;20085;-59
2021/10/15 06:18:56;;;;;;;17.20;5.88;;;10.70;99.90;;;;;;5044849;28;20029;-59
2021/10/15 06:21:22;;;;;;;18.42;5.38;;;10.70;99.90;;;;;;5052156;28;20020;-60
2021/10/15 06:23:48;;;;;;;16.83;4.93;;;10.70;99.90;;;;;;5043536;28;20021;-59
2021/10/15 06:26:13;;;;;;;9.23;4.32;;;10.70;99.90;;;;;;5043867;28;20036;-56
2021/10/15 06:28:39;;;;;;;14.63;4.32;;;10.70;99.90;;;;;;5047733;28;20033;-60
2021/10/15 06:31:04;;;;;;;12.80;4.63;;;10.70;99.90;;;;;;5062859;28;20478;-59
2021/10/15 06:33:30;;;;;;;13.07;5.22;;;10.70;99.90;;;;;;5060952;28;20025;-60
2021/10/15 06:35:55;;;;;;;10.23;4.57;;;10.80;99.90;;;;;;5048213;28;20061;-62
2021/10/15 06:38:21;;;;;;;11.75;4.93;;;10.80;99.90;;;;;;5064468;28;20024;-63
2021/10/15 06:40:46;;;;;;;10.18;4.75;;;10.80;99.90;;;;;;5062984;28;20036;-61
2021/10/15 06:43:12;;;;;;;14.13;4.72;;;10.80;99.90;;;;;;5053391;28;20033;-60
2021/10/15 06:45:38;;;;;;;14.57;5.35;;;10.90;99.90;;;;;;5051535;28;20064;-61
2021/10/15 06:48:04;;;;;;;12.27;5.05;;;10.90;99.90;;;;;;5049647;28;20039;-58
2021/10/15 06:50:30;;;;;;;11.50;5.00;;;10.90;99.90;;;;;;5047840;28;20464;-62
2021/10/15 06:52:56;;;;;;;11.52;4.35;;;10.90;99.90;;;;;;5032194;28;20033;-59
2021/10/15 06:55:23;;;;;;;11.85;4.82;;;10.90;99.90;;;;;;5051237;28;20016;-60
2021/10/15 06:57:50;;;;;;;15.85;5.95;;;10.90;99.90;;;;;;5050733;28;20445;-56
2021/10/15 07:00:17;;;;;;;13.55;5.07;;;11.00;99.90;;;;;;5058829;28;20029;-60
2021/10/15 07:02:43;;;;;;;9.63;4.00;;;11.10;99.90;;;;;;5049654;28;20453;-61
2021/10/15 07:05:10;;;;;;;7.78;4.35;;;11.20;99.90;;;;;;5057608;28;20036;-59
2021/10/15 07:07:36;;;;;;;11.02;5.25;;;11.20;99.90;;;;;;5054585;28;20120;-61
2021/10/15 07:10:03;;;;;;;13.40;4.78;;;11.30;99.90;;;;;;5050225;28;20468;-57
2021/10/15 07:12:34;;;;;;;14.85;4.53;;;11.30;99.90;;;;;;5050972;28;20021;-60
2021/10/15 07:15:00;;;;;;;13.30;5.07;;;11.30;99.90;;;;;;5049484;28;20031;-61
2021/10/15 07:17:26;;;;;;;14.10;5.57;;;11.30;99.90;;;;;;5060181;28;20033;-57
2021/10/15 07:19:51;;;;;;;11.85;4.55;;;11.40;99.90;;;;;;5046875;28;20468;-61
2021/10/15 07:22:17;;;;;;;11.45;4.60;;;11.40;99.90;;;;;;5055822;28;20395;-58
2021/10/15 07:24:42;;;;;;;12.25;5.22;;;11.40;99.90;;;;;;5061323;28;20022;-59
2021/10/15 07:27:08;;;;;;;14.13;5.80;;;11.40;99.90;;;;;;5049685;28;20401;-62
2021/10/15 07:29:33;;;;;;;7.13;4.78;;;11.40;99.90;;;;;;5064035;28;20512;-60
2021/10/15 07:32:00;;;;;;;11.20;4.85;;;11.40;99.90;;;;;;5056810;28;20024;-61
2021/10/15 07:34:26;;;;;;;18.67;5.22;;;11.40;99.90;;;;;;5052149;28;20365;-62
2021/10/15 07:36:51;;;;;;;13.52;4.78;;;11.40;99.90;;;;;;5054615;28;20040;-61
2021/10/15 07:39:17;;;;;;;12.45;5.20;;;11.40;99.90;;;;;;5061085;28;20491;-56
2021/10/15 07:41:45;;;;;;;15.57;5.32;;;11.40;99.90;;;;;;5052246;28;20037;-60
2021/10/15 07:44:12;;;;;;;15.68;6.55;;;11.40;99.90;;;;;;5052103;28;20027;-61
2021/10/15 07:46:39;;;;;;;16.58;6.28;;;11.50;99.90;;;;;;5039382;28;20033;-60
2021/10/15 07:49:08;;;;;;;11.65;6.13;;;11.60;99.90;;;;;;5055824;28;20421;-61
2021/10/15 07:51:34;;;;;;;17.40;7.05;;;11.60;99.90;;;;;;5051276;28;20031;-62
2021/10/15 07:54:00;;;;;;;13.70;6.38;;;11.60;99.90;;;;;;5052137;28;20033;-60
2021/10/15 07:56:26;;;;;;;12.93;6.07;;;11.80;99.90;;;;;;5054375;28;20025;-61
2021/10/15 07:58:51;;;;;;;12.18;5.75;;;11.90;99.90;;;;;;5052399;28;20035;-61
2021/10/15 08:01:17;;;;;;;11.68;6.18;;;12.10;99.90;;;;;;5060126;28;20033;-60
2021/10/15 08:03:42;;;;;;;11.55;5.53;;;12.10;99.90;;;;;;5047710;28;20072;-59
2021/10/15 08:06:08;;;;;;;16.67;5.30;;;12.20;99.90;;;;;;5054889;28;20036;-62
2021/10/15 08:08:34;;;;;;;14.02;5.85;;;12.30;99.90;;;;;;5050341;28;20045;-56
2021/10/15 08:11:00;;;;;;;11.40;5.38;;;12.40;99.90;;;;;;5051742;28;20115;-61
2021/10/15 08:13:26;;;;;;;15.63;5.70;;;12.50;99.90;;;;;;5047737;28;20453;-60
2021/10/15 08:15:52;;;;;;;15.35;6.63;;;12.60;99.90;;;;;;5048429;28;20029;-61
2021/10/15 08:18:18;;;;;;;14.68;6.82;;;12.70;99.90;;;;;;5055634;28;20074;-61
2021/10/15 08:20:43;;;;;;;16.30;6.30;;;12.80;99.90;;;;;;5052515;28;20037;-62
2021/10/15 08:23:09;;;;;;;14.82;5.78;;;12.90;99.90;;;;;;5057842;28;20083;-62
2021/10/15 08:25:35;;;;;;;18.55;6.03;;;13.00;99.90;;;;;;5057206;28;20569;-61
2021/10/15 08:28:01;;;;;;;16.45;6.43;;;13.10;99.90;;;;;;5054116;28;20039;-60
2021/10/15 08:30:27;;;;;;;16.10;6.13;;;13.20;99.90;;;;;;5052918;28;20459;-61
2021/10/15 08:32:53;;;;;;;18.45;6.97;;;13.20;99.90;;;;;;5050389;28;20500;-61
2021/10/15 08:35:21;;;;;;;13.88;6.32;;;13.20;99.90;;;;;;5060365;28;20021;-60
2021/10/15 08:37:47;;;;;;;21.95;7.30;;;13.20;99.90;;;;;;5054400;28;20020;-59
2021/10/15 08:40:13;;;;;;;11.60;6.22;;;13.20;99.90;;;;;;5057012;28;20078;-60
2021/10/15 08:42:38;;;;;;;13.48;6.47;;;13.20;99.90;;;;;;5050996;28;20486;-61
2021/10/15 08:45:05;;;;;;;16.48;6.65;;;13.20;99.90;;;;;;5050695;28;20529;-61
2021/10/15 08:47:31;;;;;;;13.25;6.40;;;13.20;99.90;;;;;;5038443;28;20033;-61
2021/10/15 08:49:57;;;;;;;13.80;6.22;;;13.30;99.90;;;;;;5051039;28;20029;-59
2021/10/15 08:52:22;;;;;;;17.27;6.95;;;13.20;99.90;;;;;;5050640;28;20024;-60
2021/10/15 08:54:48;;;;;;;20.45;6.25;;;13.30;99.90;;;;;;5052512;28;20029;-63
2021/10/15 08:57:15;;;;;;;15.13;7.13;;;13.30;99.90;;;;;;5051176;28;20486;-62
2021/10/15 08:59:46;;;;;;;12.02;6.63;;;13.40;99.90;;;;;;5057621;28;20029;-62
2021/10/15 09:02:20;;;;;;;12.60;6.85;;;13.40;99.90;;;;;;5034118;28;20033;-62
2021/10/15 09:04:59;;;;;;;15.02;6.05;;;13.40;99.90;;;;;;5031515;28;20525;-62
2021/10/15 09:07:26;;;;;;;15.77;6.40;;;13.50;99.90;;;;;;5066019;28;20061;-61
2021/10/15 09:10:16;;;;;;;11.93;6.70;;;13.50;99.90;;;;;;5056743;28;20036;-61
2021/10/15 09:12:44;;;;;;;15.98;7.35;;;13.50;99.90;;;;;;5047648;28;20037;-60
2021/10/15 09:15:11;;;;;;;15.07;6.75;;;13.50;99.90;;;;;;5053215;28;20112;-62
2021/10/15 09:17:48;;;;;;;20.95;7.10;;;13.50;99.90;;;;;;5046048;28;20029;-62
2021/10/15 09:20:33;;;;;;;12.98;5.93;;;13.50;99.90;;;;;;5047938;28;20028;-62
2021/10/15 09:22:58;;;;;;;18.77;7.22;;;13.60;99.90;;;;;;5053923;28;20025;-62
2021/10/15 09:25:32;;;;;;;16.40;7.15;;;13.70;99.90;;;;;;5050079;28;20406;-61
2021/10/15 09:27:58;;;;;;;15.18;6.50;;;13.70;99.90;;;;;;5049691;28;20022;-61
2021/10/15 09:30:28;;;;;;;12.75;6.65;;;13.80;99.90;;;;;;5056992;28;20095;-59
2021/10/15 09:33:01;;;;;;;19.25;6.80;;;13.80;99.90;;;;;;5051660;28;20383;-59
2021/10/15 09:35:29;;;;;;;21.27;7.43;;;13.90;99.90;;;;;;5050919;28;20025;-60
2021/10/15 09:38:02;;;;;;;16.65;7.75;;;13.80;99.90;;;;;;5048752;28;20108;-62
2021/10/15 09:42:56;;;;;;;21.63;7.93;;;13.80;99.90;;;;;;5062725;22;20111;-58
2021/10/15 09:45:49;;;;;;;20.63;7.20;;;13.90;99.90;;;;;;5050079;28;20043;-59
2021/10/15 09:48:22;;;;;;;16.67;7.75;;;13.90;99.90;;;;;;5047240;28;20120;-57
2021/10/15 09:51:09;;;;;;;17.57;6.67;;;13.90;99.90;;;;;;5050250;28;20549;-60
2021/10/15 09:53:35;;;;;;;26.92;7.05;;;13.80;99.90;;;;;;5046631;28;20112;-59
2021/10/15 09:56:00;;;;;;;14.77;6.45;;;13.80;99.90;;;;;;5049154;28;20075;-60
2021/10/15 09:58:27;;;;;;;28.58;9.70;;;13.80;99.90;;;;;;5049969;28;20063;-62
2021/10/15 10:00:53;;;;;;;15.40;6.50;;;13.70;99.90;;;;;;5047429;28;20036;-59
2021/10/15 10:03:22;;;;;;;24.05;8.82;;;13.80;99.90;;;;;;5046805;28;20108;-60
2021/10/15 10:05:49;;;;;;;18.33;7.38;;;13.70;99.90;;;;;;5043453;28;20526;-56
2021/10/15 10:08:15;;;;;;;12.85;7.30;;;13.70;99.90;;;;;;5045574;28;20512;-59
2021/10/15 10:10:42;;;;;;;18.77;8.70;;;13.50;99.90;;;;;;5046913;28;20032;-61
2021/10/15 10:13:11;;;;;;;21.58;10.30;;;13.40;99.90;;;;;;5030231;28;20112;-60
2021/10/15 10:15:42;;;;;;;21.42;9.55;;;13.30;99.90;;;;;;5047335;28;20048;-60
2021/10/15 10:18:22;;;;;;;22.42;9.43;;;13.20;99.90;;;;;;5046621;28;20021;-58
2021/10/15 10:21:05;;;;;;;20.63;10.57;;;13.10;99.90;;;;;;5045198;28;20028;-61
2021/10/15 10:23:35;;;;;;;18.05;11.32;;;13.00;99.90;;;;;;5046850;28;20487;-61
2021/10/15 10:26:04;;;;;;;23.75;11.50;;;12.90;99.90;;;;;;5044776;28;20036;-60
2021/10/15 10:28:31;;;;;;;20.80;12.23;;;12.90;99.90;;;;;;5046840;28;20059;-58
2021/10/15 10:31:02;;;;;;;22.00;12.00;;;12.80;99.90;;;;;;5046803;28;20048;-62
2021/10/15 10:33:29;;;;;;;23.48;11.13;;;12.80;99.90;;;;;;5046201;28;20024;-63
2021/10/15 10:36:10;;;;;;;26.95;12.15;;;12.80;99.90;;;;;;5047142;28;20082;-63
2021/10/15 10:38:36;;;;;;;21.30;10.60;;;12.80;99.90;;;;;;5046237;28;20109;-62
2021/10/15 10:41:02;;;;;;;20.13;11.80;;;12.90;99.90;;;;;;5045224;28;20017;-63
2021/10/15 10:43:32;;;;;;;26.10;13.13;;;12.90;99.90;;;;;;5047557;28;20442;-61
2021/10/15 10:46:13;;;;;;;20.65;12.25;;;12.80;99.90;;;;;;5046563;28;20108;-62
2021/10/15 10:48:51;;;;;;;26.17;13.00;;;12.90;99.90;;;;;;5045034;28;20053;-60
2021/10/15 10:51:22;;;;;;;25.50;13.65;;;13.00;99.90;;;;;;5045780;28;20025;-61
2021/10/15 10:54:04;;;;;;;24.30;13.32;;;13.00;99.90;;;;;;5047143;28;20037;-64
2021/10/15 10:56:38;;;;;;;27.33;13.98;;;13.00;99.90;;;;;;5042589;28;20391;-61
2021/10/15 10:59:22;;;;;;;27.67;14.05;;;13.10;99.90;;;;;;5042187;28;20025;-63
2021/10/15 11:01:53;;;;;;;19.90;12.32;;;13.10;99.90;;;;;;5044890;28;20538;-62
2021/10/15 11:04:48;;;;;;;24.08;13.43;;;13.10;99.90;;;;;;5047043;28;20039;-60
2021/10/15 11:07:16;;;;;;;;;;;13.20;99.90;;;;;;5047639;28;20036;-56
2021/10/15 11:09:58;;;;;;;26.58;13.75;;;13.20;99.90;;;;;;5046959;28;19924;-59
2021/10/15 11:12:26;;;;;;;24.23;12.88;;;13.20;99.90;;;;;;5047403;28;20032;-61
2021/10/15 11:14:56;;;;;;;24.30;13.82;;;13.20;99.90;;;;;;5044966;28;20025;-62
2021/10/15 11:17:31;;;;;;;22.33;12.32;;;13.30;99.90;;;;;;5046554;28;20048;-61
2021/10/15 11:20:07;;;;;;;24.27;13.60;;;13.30;99.90;;;;;;5045587;28;20103;-60
2021/10/15 11:22:33;;;;;;;24.17;14.02;;;13.20;99.90;;;;;;5047294;28;20037;-62
2021/10/15 11:24:59;;;;;;;21.95;14.57;;;13.20;99.90;;;;;;5043818;28;20036;-62
2021/10/15 11:27:25;;;;;;;31.05;15.20;;;13.10;99.90;;;;;;5045890;28;20021;-56
2021/10/15 11:29:57;;;;;;;25.05;14.55;;;13.10;99.90;;;;;;5042566;28;20032;-55
2021/10/15 11:32:35;;;;;;;24.63;15.07;;;13.10;99.90;;;;;;5045320;28;20021;-59
2021/10/15 11:35:19;;;;;;;20.70;13.70;;;13.10;99.90;;;;;;5045467;28;20055;-63
2021/10/15 11:38:19;;;;;;;22.33;15.05;;;13.10;99.90;;;;;;5041063;28;20025;-60
2021/10/15 11:40:47;;;;;;;19.02;13.25;;;13.00;99.90;;;;;;5024768;28;20116;-63
2021/10/15 11:43:26;;;;;;;21.80;13.95;;;13.00;99.90;;;;;;5047314;28;20036;-61
2021/10/15 11:45:55;;;;;;;14.48;10.85;;;13.00;99.90;;;;;;5046495;28;20025;-64
2021/10/15 11:48:34;;;;;;;7.65;5.60;;;12.90;99.90;;;;;;5045020;28;20035;-62
2021/10/15 11:51:02;;;;;;;12.35;4.57;;;12.70;99.90;;;;;;5046408;28;20494;-63
2021/10/15 11:53:40;;;;;;;6.78;3.65;;;12.60;99.90;;;;;;5046568;28;20025;-60
2021/10/15 11:56:09;;;;;;;11.07;4.80;;;12.50;99.90;;;;;;5045830;28;20032;-58
2021/10/15 11:58:45;;;;;;;13.63;5.13;;;12.40;99.90;;;;;;5045883;28;20064;-58
2021/10/15 12:01:14;;;;;;;10.85;5.43;;;12.40;99.90;;;;;;5044938;28;20085;-62
2021/10/15 12:03:52;;;;;;;18.80;5.38;;;12.50;99.90;;;;;;5045935;28;20094;-61
2021/10/15 12:06:24;;;;;;;12.20;6.20;;;12.50;99.90;;;;;;5045419;28;20064;-61
2021/10/15 12:08:58;;;;;;;14.38;6.05;;;12.50;99.90;;;;;;5044808;28;20029;-61
2021/10/15 12:11:41;;;;;;;11.60;5.85;;;12.50;99.90;;;;;;5046915;28;20554;-60
2021/10/15 12:14:32;;;;;;;8.50;5.53;;;12.60;99.90;;;;;;5047389;28;20037;-56
2021/10/15 12:17:12;;;;;;;10.00;5.97;;;12.70;99.90;;;;;;5045370;28;20041;-61
2021/10/15 12:19:39;;;;;;;8.88;4.68;;;12.70;99.90;;;;;;5046216;28;20397;-59
2021/10/15 12:22:09;;;;;;;10.15;5.00;;;12.80;99.90;;;;;;5045485;28;20078;-59
2021/10/15 12:24:44;;;;;;;16.63;4.88;;;12.90;99.90;;;;;;5046572;28;20453;-57
2021/10/15 12:27:14;;;;;;;9.00;4.47;;;13.00;99.90;;;;;;5044651;28;20048;-60
2021/10/15 12:29:59;;;;;;;8.75;3.90;;;13.10;99.90;;;;;;5047293;28;20367;-59
2021/10/15 12:32:37;;;;;;;15.90;4.65;;;13.20;99.90;;;;;;5047398;28;20448;-61
2021/10/15 12:35:02;;;;;;;8.45;4.57;;;13.30;99.90;;;;;;5049192;28;20595;-60
2021/10/15 12:37:40;;;;;;;6.95;4.40;;;13.30;99.90;;;;;;5049560;28;20017;-56
2021/10/15 12:40:21;;;;;;;8.05;4.88;;;13.30;99.90;;;;;;5050105;28;20429;-59
2021/10/15 12:42:56;;;;;;;9.45;5.03;;;13.30;99.90;;;;;;5048402;28;20394;-59
2021/10/15 12:45:25;;;;;;;5.72;4.07;;;13.30;99.90;;;;;;5050141;28;20028;-58
2021/10/15 12:48:08;;;;;;;13.65;4.57;;;13.40;99.90;;;;;;5048585;28;20021;-62
2021/10/15 12:50:39;;;;;;;8.88;4.45;;;13.50;99.90;;;;;;5049194;28;20044;-61
2021/10/15 12:53:19;;;;;;;6.93;4.60;;;13.50;99.90;;;;;;5049743;28;20036;-57
2021/10/15 12:55:58;;;;;;;10.48;4.72;;;13.50;99.90;;;;;;5046679;28;20076;-61
2021/10/15 12:58:26;;;;;;;8.60;4.28;;;13.60;99.90;;;;;;5047875;28;20130;-57
2021/10/15 13:00:57;;;;;;;7.90;3.42;;;13.60;99.90;;;;;;5049392;28;20033;-57